sensor_id;sensor_type;location;lat;lon;timestamp;pressure;altitude;pressure_sealevel;temperature;humidity
65173;BME280;69059;52.218;5.172;2023-06-14T00:01:02;101409.47;;;19.67;100.00
65173;BME280;69059;52.218;5.172;2023-06-14T00:03:32;101414.31;;;19.71;100.00
65173;BME280;69059;52.218;5.172;2023-06-14T00:06:00;101414.63;;;19.62;100.00
65173;BME280;69059;52.218;5.172;2023-06-14T00:08:28;101416.31;;;19.57;100.00
65173;BME280;69059;52.218;5.172;2023-06-14T00:10:56;101416.16;;;19.52;100.00
65173;BME280;69059;52.218;5.172;2023-06-14T00:13:25;101420.66;;;19.51;100.00
65173;BME280;69059;52.218;5.172;2023-06-14T00:15:52;101422.13;;;19.47;100.00
65173;BME280;69059;52.218;5.172;2023-06-14T00:18:21;101423.75;;;19.48;100.00
65173;BME280;69059;52.218;5.172;2023-06-14T00:20:50;101424.03;;;19.40;100.00
65173;BME280;69059;52.218;5.172;2023-06-14T00:23:18;101427.25;;;19.42;100.00
65173;BME280;69059;52.218;5.172;2023-06-14T00:25:47;101422.50;;;19.32;100.00
65173;BME280;69059;52.218;5.172;2023-06-14T00:28:14;101430.22;;;19.34;100.00
65173;BME280;69059;52.218;5.172;2023-06-14T00:30:44;101428.59;;;19.33;100.00
65173;BME280;69059;52.218;5.172;2023-06-14T00:33:13;101424.19;;;19.27;100.00
65173;BME280;69059;52.218;5.172;2023-06-14T00:35:41;101428.16;;;19.18;100.00
65173;BME280;69059;52.218;5.172;2023-06-14T00:38:09;101419.03;;;19.14;100.00
65173;BME280;69059;52.218;5.172;2023-06-14T00:40:37;101417.72;;;19.05;100.00
65173;BME280;69059;52.218;5.172;2023-06-14T00:43:05;101427.34;;;18.99;100.00
65173;BME280;69059;52.218;5.172;2023-06-14T00:45:32;101420.22;;;19.00;100.00
65173;BME280;69059;52.218;5.172;2023-06-14T00:48:04;101418.75;;;19.04;100.00
65173;BME280;69059;52.218;5.172;2023-06-14T00:50:34;101425.88;;;19.03;100.00
65173;BME280;69059;52.218;5.172;2023-06-14T00:53:02;101423.72;;;18.93;100.00
65173;BME280;69059;52.218;5.172;2023-06-14T00:55:30;101413.44;;;18.85;100.00
65173;BME280;69059;52.218;5.172;2023-06-14T00:57:59;101426.47;;;18.87;100.00
65173;BME280;69059;52.218;5.172;2023-06-14T01:00:27;101423.00;;;18.86;100.00
65173;BME280;69059;52.218;5.172;2023-06-14T01:02:56;101424.59;;;18.87;100.00
65173;BME280;69059;52.218;5.172;2023-06-14T01:05:25;101423.84;;;18.80;100.00
65173;BME280;69059;52.218;5.172;2023-06-14T01:08:07;101420.19;;;18.81;100.00
65173;BME280;69059;52.218;5.172;2023-06-14T01:10:46;101416.81;;;18.74;100.00
65173;BME280;69059;52.218;5.172;2023-06-14T01:13:21;101417.03;;;18.73;100.00
65173;BME280;69059;52.218;5.172;2023-06-14T01:15:52;101418.53;;;18.62;100.00
65173;BME280;69059;52.218;5.172;2023-06-14T01:18:20;101424.56;;;18.69;100.00
65173;BME280;69059;52.218;5.172;2023-06-14T01:20:52;101415.44;;;18.65;100.00
65173;BME280;69059;52.218;5.172;2023-06-14T01:23:23;101405.63;;;18.47;100.00
65173;BME280;69059;52.218;5.172;2023-06-14T01:25:51;101409.22;;;18.53;100.00
65173;BME280;69059;52.218;5.172;2023-06-14T01:28:21;101416.94;;;18.54;100.00
65173;BME280;69059;52.218;5.172;2023-06-14T01:30:51;101406.56;;;18.53;100.00
65173;BME280;69059;52.218;5.172;2023-06-14T01:33:21;101418.44;;;18.44;100.00
65173;BME280;69059;52.218;5.172;2023-06-14T01:35:51;101411.59;;;18.36;100.00
65173;BME280;69059;52.218;5.172;2023-06-14T01:38:20;101412.56;;;18.42;100.00
65173;BME280;69059;52.218;5.172;2023-06-14T01:40:51;101392.41;;;18.22;100.00
65173;BME280;69059;52.218;5.172;2023-06-14T01:43:20;101421.31;;;18.42;100.00
65173;BME280;69059;52.218;5.172;2023-06-14T01:45:49;101418.94;;;18.34;100.00
65173;BME280;69059;52.218;5.172;2023-06-14T01:48:18;101412.53;;;18.23;100.00
65173;BME280;69059;52.218;5.172;2023-06-14T01:50:47;101421.63;;;18.27;100.00
65173;BME280;69059;52.218;5.172;2023-06-14T01:53:16;101421.81;;;18.26;100.00
65173;BME280;69059;52.218;5.172;2023-06-14T01:55:43;101416.75;;;18.24;100.00
65173;BME280;69059;52.218;5.172;2023-06-14T01:58:16;101412.63;;;18.04;100.00
65173;BME280;69059;52.218;5.172;2023-06-14T02:00:45;101418.25;;;18.14;100.00
65173;BME280;69059;52.218;5.172;2023-06-14T02:03:14;101425.38;;;18.13;100.00
65173;BME280;69059;52.218;5.172;2023-06-14T02:05:42;101417.72;;;18.05;100.00
65173;BME280;69059;52.218;5.172;2023-06-14T02:08:09;101418.94;;;18.03;100.00
65173;BME280;69059;52.218;5.172;2023-06-14T02:10:38;101417.53;;;18.00;100.00
65173;BME280;69059;52.218;5.172;2023-06-14T02:13:05;101422.25;;;17.98;100.00
65173;BME280;69059;52.218;5.172;2023-06-14T02:15:35;101416.78;;;17.93;100.00
65173;BME280;69059;52.218;5.172;2023-06-14T02:18:03;101418.81;;;17.91;100.00
65173;BME280;69059;52.218;5.172;2023-06-14T02:20:32;101410.69;;;17.86;100.00
65173;BME280;69059;52.218;5.172;2023-06-14T02:23:00;101415.63;;;17.76;100.00
65173;BME280;69059;52.218;5.172;2023-06-14T02:25:27;101414.81;;;17.75;100.00
65173;BME280;69059;52.218;5.172;2023-06-14T02:27:55;101410.78;;;17.73;100.00
65173;BME280;69059;52.218;5.172;2023-06-14T02:30:23;101410.19;;;17.71;100.00
65173;BME280;69059;52.218;5.172;2023-06-14T02:32:52;101417.72;;;17.67;100.00
65173;BME280;69059;52.218;5.172;2023-06-14T02:35:20;101407.75;;;17.63;100.00
65173;BME280;69059;52.218;5.172;2023-06-14T02:37:51;101416.69;;;17.62;100.00
65173;BME280;69059;52.218;5.172;2023-06-14T02:40:19;101418.94;;;17.58;100.00
65173;BME280;69059;52.218;5.172;2023-06-14T02:42:47;101419.16;;;17.57;100.00
65173;BME280;69059;52.218;5.172;2023-06-14T02:45:14;101418.75;;;17.53;100.00
65173;BME280;69059;52.218;5.172;2023-06-14T02:47:42;101419.63;;;17.47;100.00
65173;BME280;69059;52.218;5.172;2023-06-14T02:50:12;101423.44;;;17.51;100.00
65173;BME280;69059;52.218;5.172;2023-06-14T02:52:40;101423.69;;;17.43;100.00
65173;BME280;69059;52.218;5.172;2023-06-14T02:55:08;101428.75;;;17.44;100.00
65173;BME280;69059;52.218;5.172;2023-06-14T02:57:36;101395.91;;;17.27;100.00
65173;BME280;69059;52.218;5.172;2023-06-14T03:00:05;101430.97;;;17.47;100.00
65173;BME280;69059;52.218;5.172;2023-06-14T03:02:36;101424.75;;;17.29;100.00
65173;BME280;69059;52.218;5.172;2023-06-14T03:05:04;101428.41;;;17.28;100.00
65173;BME280;69059;52.218;5.172;2023-06-14T03:07:35;101426.16;;;17.31;100.00
65173;BME280;69059;52.218;5.172;2023-06-14T03:10:08;101422.13;;;17.22;100.00
65173;BME280;69059;52.218;5.172;2023-06-14T03:12:36;101430.44;;;17.19;100.00
65173;BME280;69059;52.218;5.172;2023-06-14T03:15:05;101434.50;;;17.15;100.00
65173;BME280;69059;52.218;5.172;2023-06-14T03:17:33;101437.16;;;17.15;100.00
65173;BME280;69059;52.218;5.172;2023-06-14T03:20:02;101439.78;;;17.15;100.00
65173;BME280;69059;52.218;5.172;2023-06-14T03:22:30;101434.09;;;17.18;100.00
65173;BME280;69059;52.218;5.172;2023-06-14T03:25:00;101431.66;;;17.16;100.00
65173;BME280;69059;52.218;5.172;2023-06-14T03:27:30;101445.28;;;17.20;100.00
65173;BME280;69059;52.218;5.172;2023-06-14T03:29:58;101448.94;;;17.19;100.00
65173;BME280;69059;52.218;5.172;2023-06-14T03:32:26;101445.50;;;17.05;100.00
65173;BME280;69059;52.218;5.172;2023-06-14T03:34:54;101449.56;;;17.08;100.00
65173;BME280;69059;52.218;5.172;2023-06-14T03:37:23;101451.59;;;16.99;100.00
65173;BME280;69059;52.218;5.172;2023-06-14T03:39:50;101445.09;;;17.08;100.00
65173;BME280;69059;52.218;5.172;2023-06-14T03:42:20;101445.72;;;16.91;100.00
65173;BME280;69059;52.218;5.172;2023-06-14T03:44:48;101453.22;;;16.94;100.00
65173;BME280;69059;52.218;5.172;2023-06-14T03:47:15;101462.56;;;16.96;100.00
65173;BME280;69059;52.218;5.172;2023-06-14T03:49:43;101458.31;;;16.95;100.00
65173;BME280;69059;52.218;5.172;2023-06-14T03:52:11;101457.66;;;17.00;100.00
65173;BME280;69059;52.218;5.172;2023-06-14T03:54:40;101459.31;;;16.94;100.00
65173;BME280;69059;52.218;5.172;2023-06-14T03:57:31;101464.78;;;16.93;100.00
65173;BME280;69059;52.218;5.172;2023-06-14T03:59:58;101466.84;;;16.84;100.00
65173;BME280;69059;52.218;5.172;2023-06-14T04:02:26;101464.97;;;16.84;100.00
65173;BME280;69059;52.218;5.172;2023-06-14T04:04:55;101469.47;;;16.91;100.00
65173;BME280;69059;52.218;5.172;2023-06-14T04:07:23;101477.56;;;16.89;100.00
65173;BME280;69059;52.218;5.172;2023-06-14T04:09:51;101477.16;;;16.86;100.00
65173;BME280;69059;52.218;5.172;2023-06-14T04:12:19;101481.22;;;16.75;100.00
65173;BME280;69059;52.218;5.172;2023-06-14T04:14:48;101470.69;;;16.81;100.00
65173;BME280;69059;52.218;5.172;2023-06-14T04:17:16;101479.59;;;16.80;100.00
65173;BME280;69059;52.218;5.172;2023-06-14T04:19:44;101482.25;;;16.94;100.00
65173;BME280;69059;52.218;5.172;2023-06-14T04:22:11;101489.75;;;16.90;100.00
65173;BME280;69059;52.218;5.172;2023-06-14T04:24:39;101490.97;;;16.81;100.00
65173;BME280;69059;52.218;5.172;2023-06-14T04:27:09;101482.84;;;16.82;100.00
65173;BME280;69059;52.218;5.172;2023-06-14T04:29:36;101486.50;;;16.88;100.00
65173;BME280;69059;52.218;5.172;2023-06-14T04:32:07;101478.78;;;16.87;100.00
65173;BME280;69059;52.218;5.172;2023-06-14T04:34:36;101486.09;;;16.91;100.00
65173;BME280;69059;52.218;5.172;2023-06-14T04:37:06;101486.91;;;16.78;100.00
65173;BME280;69059;52.218;5.172;2023-06-14T04:39:34;101484.88;;;16.87;100.00
65173;BME280;69059;52.218;5.172;2023-06-14T04:42:02;101486.69;;;16.87;100.00
65173;BME280;69059;52.218;5.172;2023-06-14T04:44:31;101488.50;;;16.86;100.00
65173;BME280;69059;52.218;5.172;2023-06-14T04:46:58;101482.25;;;16.80;100.00
65173;BME280;69059;52.218;5.172;2023-06-14T04:49:28;101493.59;;;16.88;100.00
65173;BME280;69059;52.218;5.172;2023-06-14T04:51:58;101491.56;;;16.90;100.00
65173;BME280;69059;52.218;5.172;2023-06-14T04:54:28;101492.97;;;16.99;100.00
65173;BME280;69059;52.218;5.172;2023-06-14T04:56:58;101498.25;;;16.99;100.00
65173;BME280;69059;52.218;5.172;2023-06-14T04:59:25;101496.63;;;16.98;100.00
65173;BME280;69059;52.218;5.172;2023-06-14T05:01:53;101487.13;;;16.83;100.00
65173;BME280;69059;52.218;5.172;2023-06-14T05:04:23;101504.75;;;16.90;100.00
65173;BME280;69059;52.218;5.172;2023-06-14T05:06:54;101491.56;;;16.90;100.00
65173;BME280;69059;52.218;5.172;2023-06-14T05:09:22;101491.78;;;16.95;100.00
65173;BME280;69059;52.218;5.172;2023-06-14T05:11:50;101493.41;;;16.96;100.00
65173;BME280;69059;52.218;5.172;2023-06-14T05:14:18;101500.06;;;16.98;100.00
65173;BME280;69059;52.218;5.172;2023-06-14T05:16:46;101491.75;;;17.01;100.00
65173;BME280;69059;52.218;5.172;2023-06-14T05:19:15;101500.47;;;17.02;100.00
65173;BME280;69059;52.218;5.172;2023-06-14T05:21:44;101499.47;;;17.03;100.00
65173;BME280;69059;52.218;5.172;2023-06-14T05:24:15;101501.91;;;16.84;100.00
65173;BME280;69059;52.218;5.172;2023-06-14T05:26:43;101499.50;;;16.96;100.00
65173;BME280;69059;52.218;5.172;2023-06-14T05:29:11;101508.22;;;16.83;100.00
65173;BME280;69059;52.218;5.172;2023-06-14T05:31:39;101495.63;;;16.99;100.00
65173;BME280;69059;52.218;5.172;2023-06-14T05:34:07;101495.81;;;17.10;100.00
65173;BME280;69059;52.218;5.172;2023-06-14T05:36:35;101502.72;;;17.18;100.00
65173;BME280;69059;52.218;5.172;2023-06-14T05:39:03;101500.47;;;17.15;100.00
65173;BME280;69059;52.218;5.172;2023-06-14T05:41:34;101503.94;;;17.02;100.00
65173;BME280;69059;52.218;5.172;2023-06-14T05:44:02;101504.53;;;17.11;100.00
65173;BME280;69059;52.218;5.172;2023-06-14T05:46:30;101510.44;;;17.19;100.00
65173;BME280;69059;52.218;5.172;2023-06-14T05:48:58;101514.88;;;17.32;100.00
65173;BME280;69059;52.218;5.172;2023-06-14T05:51:26;101513.63;;;17.41;100.00
65173;BME280;69059;52.218;5.172;2023-06-14T05:53:53;101519.72;;;17.42;100.00
65173;BME280;69059;52.218;5.172;2023-06-14T05:56:22;101526.63;;;17.36;100.00
65173;BME280;69059;52.218;5.172;2023-06-14T05:58:51;101525.41;;;17.39;100.00
65173;BME280;69059;52.218;5.172;2023-06-14T06:01:19;101527.41;;;17.57;100.00
65173;BME280;69059;52.218;5.172;2023-06-14T06:03:47;101525.78;;;17.55;100.00
65173;BME280;69059;52.218;5.172;2023-06-14T06:06:15;101530.66;;;17.52;100.00
65173;BME280;69059;52.218;5.172;2023-06-14T06:08:44;101539.78;;;17.56;100.00
65173;BME280;69059;52.218;5.172;2023-06-14T06:11:11;101531.66;;;17.64;100.00
65173;BME280;69059;52.218;5.172;2023-06-14T06:13:39;101533.44;;;17.83;100.00
65173;BME280;69059;52.218;5.172;2023-06-14T06:16:09;101530.81;;;17.83;100.00
65173;BME280;69059;52.218;5.172;2023-06-14T06:18:37;101541.75;;;17.94;100.00
65173;BME280;69059;52.218;5.172;2023-06-14T06:21:06;101539.66;;;18.09;100.00
65173;BME280;69059;52.218;5.172;2023-06-14T06:23:33;101541.81;;;18.18;100.00
65173;BME280;69059;52.218;5.172;2023-06-14T06:26:02;101541.00;;;18.18;100.00
65173;BME280;69059;52.218;5.172;2023-06-14T06:28:30;101545.94;;;18.46;100.00
65173;BME280;69059;52.218;5.172;2023-06-14T06:30:58;101549.16;;;18.61;100.00
65173;BME280;69059;52.218;5.172;2023-06-14T06:33:31;101540.13;;;18.69;100.00
65173;BME280;69059;52.218;5.172;2023-06-14T06:35:59;101545.00;;;18.96;100.00
65173;BME280;69059;52.218;5.172;2023-06-14T06:38:27;101550.50;;;19.20;100.00
65173;BME280;69059;52.218;5.172;2023-06-14T06:40:55;101548.72;;;19.14;100.00
65173;BME280;69059;52.218;5.172;2023-06-14T06:43:23;101548.03;;;19.50;100.00
65173;BME280;69059;52.218;5.172;2023-06-14T06:45:51;101556.84;;;19.80;100.00
65173;BME280;69059;52.218;5.172;2023-06-14T06:48:18;101564.25;;;19.90;100.00
65173;BME280;69059;52.218;5.172;2023-06-14T06:50:47;101564.16;;;20.15;100.00
65173;BME280;69059;52.218;5.172;2023-06-14T06:53:15;101571.19;;;20.09;100.00
65173;BME280;69059;52.218;5.172;2023-06-14T06:56:00;101573.66;;;20.22;100.00
65173;BME280;69059;52.218;5.172;2023-06-14T06:58:28;101582.56;;;20.46;100.00
65173;BME280;69059;52.218;5.172;2023-06-14T07:00:56;101580.97;;;20.57;100.00
65173;BME280;69059;52.218;5.172;2023-06-14T07:03:24;101572.72;;;20.77;100.00
65173;BME280;69059;52.218;5.172;2023-06-14T07:05:53;101588.72;;;21.12;100.00
65173;BME280;69059;52.218;5.172;2023-06-14T07:08:21;101578.00;;;21.30;100.00
65173;BME280;69059;52.218;5.172;2023-06-14T07:10:48;101591.63;;;21.45;100.00
65173;BME280;69059;52.218;5.172;2023-06-14T07:13:16;101591.63;;;21.45;100.00
65173;BME280;69059;52.218;5.172;2023-06-14T07:15:44;101595.22;;;21.51;100.00
65173;BME280;69059;52.218;5.172;2023-06-14T07:18:12;101596.91;;;21.80;100.00
65173;BME280;69059;52.218;5.172;2023-06-14T07:20:42;101592.19;;;21.59;100.00
65173;BME280;69059;52.218;5.172;2023-06-14T07:23:11;101596.56;;;22.00;100.00
65173;BME280;69059;52.218;5.172;2023-06-14T07:25:39;101601.38;;;22.14;100.00
65173;BME280;69059;52.218;5.172;2023-06-14T07:28:07;101603.56;;;22.06;100.00
65173;BME280;69059;52.218;5.172;2023-06-14T07:30:35;101613.81;;;22.26;100.00
65173;BME280;69059;52.218;5.172;2023-06-14T07:33:03;101610.91;;;22.56;100.00
65173;BME280;69059;52.218;5.172;2023-06-14T07:35:31;101610.06;;;22.67;100.00
65173;BME280;69059;52.218;5.172;2023-06-14T07:37:59;101616.72;;;22.81;100.00
65173;BME280;69059;52.218;5.172;2023-06-14T07:40:28;101623.34;;;22.78;100.00
65173;BME280;69059;52.218;5.172;2023-06-14T07:42:55;101631.31;;;22.95;100.00
65173;BME280;69059;52.218;5.172;2023-06-14T07:45:23;101617.31;;;23.00;100.00
65173;BME280;69059;52.218;5.172;2023-06-14T07:47:51;101618.34;;;22.99;100.00
65173;BME280;69059;52.218;5.172;2023-06-14T07:50:19;101622.72;;;22.88;100.00
65173;BME280;69059;52.218;5.172;2023-06-14T07:52:47;101632.41;;;23.28;100.00
65173;BME280;69059;52.218;5.172;2023-06-14T07:55:15;101611.84;;;23.45;98.10
65173;BME280;69059;52.218;5.172;2023-06-14T07:57:45;101630.69;;;23.93;100.00
65173;BME280;69059;52.218;5.172;2023-06-14T08:00:13;101625.00;;;24.28;96.98
65173;BME280;69059;52.218;5.172;2023-06-14T08:02:41;101635.88;;;24.49;90.32
65173;BME280;69059;52.218;5.172;2023-06-14T08:05:10;101630.13;;;24.13;93.20
65173;BME280;69059;52.218;5.172;2023-06-14T08:07:38;101638.69;;;24.15;94.30
65173;BME280;69059;52.218;5.172;2023-06-14T08:10:07;101639.53;;;24.21;92.45
65173;BME280;69059;52.218;5.172;2023-06-14T08:12:35;101634.53;;;24.46;92.00
65173;BME280;69059;52.218;5.172;2023-06-14T08:15:06;101634.78;;;24.45;90.05
65173;BME280;69059;52.218;5.172;2023-06-14T08:17:42;101639.16;;;24.29;86.38
65173;BME280;69059;52.218;5.172;2023-06-14T08:20:11;101637.72;;;24.43;88.63
65173;BME280;69059;52.218;5.172;2023-06-14T08:22:40;101635.63;;;24.77;88.27
65173;BME280;69059;52.218;5.172;2023-06-14T08:25:09;101636.19;;;25.06;86.32
65173;BME280;69059;52.218;5.172;2023-06-14T08:27:37;101635.13;;;25.44;84.73
65173;BME280;69059;52.218;5.172;2023-06-14T08:30:08;101641.72;;;25.31;78.60
65173;BME280;69059;52.218;5.172;2023-06-14T08:32:36;101633.63;;;25.58;81.60
65173;BME280;69059;52.218;5.172;2023-06-14T08:35:04;101622.31;;;25.98;77.42
65173;BME280;69059;52.218;5.172;2023-06-14T08:37:38;101620.72;;;25.92;71.08
65173;BME280;69059;52.218;5.172;2023-06-14T08:40:11;101632.31;;;26.23;70.32
65173;BME280;69059;52.218;5.172;2023-06-14T08:42:41;101624.91;;;26.40;77.25
65173;BME280;69059;52.218;5.172;2023-06-14T08:45:11;101626.25;;;26.53;71.36
65173;BME280;69059;52.218;5.172;2023-06-14T08:47:40;101636.19;;;26.58;65.91
65173;BME280;69059;52.218;5.172;2023-06-14T08:50:08;101633.03;;;25.93;71.99
65173;BME280;69059;52.218;5.172;2023-06-14T08:52:55;101627.44;;;26.05;67.53
65173;BME280;69059;52.218;5.172;2023-06-14T08:55:24;101638.03;;;26.47;70.76
65173;BME280;69059;52.218;5.172;2023-06-14T08:57:54;101641.47;;;26.37;69.08
65173;BME280;69059;52.218;5.172;2023-06-14T09:00:26;101636.31;;;26.16;70.00
65173;BME280;69059;52.218;5.172;2023-06-14T09:02:54;101637.25;;;26.52;66.41
65173;BME280;69059;52.218;5.172;2023-06-14T09:05:24;101634.56;;;25.84;66.63
65173;BME280;69059;52.218;5.172;2023-06-14T09:07:53;101636.31;;;26.16;68.35
65173;BME280;69059;52.218;5.172;2023-06-14T09:10:23;101637.84;;;26.01;62.14
65173;BME280;69059;52.218;5.172;2023-06-14T09:12:52;101636.94;;;26.38;66.70
65173;BME280;69059;52.218;5.172;2023-06-14T09:15:20;101645.16;;;26.26;59.93
65173;BME280;69059;52.218;5.172;2023-06-14T09:17:49;101641.25;;;26.54;69.34
65173;BME280;69059;52.218;5.172;2023-06-14T09:20:18;101647.19;;;26.87;65.86
65173;BME280;69059;52.218;5.172;2023-06-14T09:22:46;101633.81;;;27.02;60.03
65173;BME280;69059;52.218;5.172;2023-06-14T09:25:14;101635.97;;;26.85;63.53
65173;BME280;69059;52.218;5.172;2023-06-14T09:28:02;101642.31;;;26.48;62.18
65173;BME280;69059;52.218;5.172;2023-06-14T09:30:33;101652.03;;;27.00;73.42
65173;BME280;69059;52.218;5.172;2023-06-14T09:33:03;101637.56;;;27.11;60.43
65173;BME280;69059;52.218;5.172;2023-06-14T09:35:31;101656.31;;;26.91;66.73
65173;BME280;69059;52.218;5.172;2023-06-14T09:37:59;101643.47;;;27.18;56.39
65173;BME280;69059;52.218;5.172;2023-06-14T09:40:27;101650.94;;;27.57;55.88
65173;BME280;69059;52.218;5.172;2023-06-14T09:42:55;101650.63;;;27.78;58.72
65173;BME280;69059;52.218;5.172;2023-06-14T09:45:25;101646.22;;;28.08;59.59
65173;BME280;69059;52.218;5.172;2023-06-14T09:47:57;101637.09;;;28.09;61.74
65173;BME280;69059;52.218;5.172;2023-06-14T09:50:35;101640.16;;;27.82;55.00
65173;BME280;69059;52.218;5.172;2023-06-14T09:53:06;101640.00;;;28.12;60.00
65173;BME280;69059;52.218;5.172;2023-06-14T09:55:35;101647.22;;;28.27;51.36
65173;BME280;69059;52.218;5.172;2023-06-14T09:58:05;101652.34;;;28.24;57.79
65173;BME280;69059;52.218;5.172;2023-06-14T10:00:35;101640.22;;;28.31;49.05
65173;BME280;69059;52.218;5.172;2023-06-14T10:03:08;101653.06;;;28.39;54.42
65173;BME280;69059;52.218;5.172;2023-06-14T10:05:43;101659.34;;;28.20;49.41
65173;BME280;69059;52.218;5.172;2023-06-14T10:08:13;101652.22;;;27.79;49.22
65173;BME280;69059;52.218;5.172;2023-06-14T10:10:43;101638.63;;;27.40;59.22
65173;BME280;69059;52.218;5.172;2023-06-14T10:13:12;101651.66;;;27.88;61.84
65173;BME280;69059;52.218;5.172;2023-06-14T10:15:45;101640.59;;;28.04;46.80
65173;BME280;69059;52.218;5.172;2023-06-14T10:18:19;101643.91;;;27.81;56.59
65173;BME280;69059;52.218;5.172;2023-06-14T10:20:58;101639.31;;;27.92;45.32
65173;BME280;69059;52.218;5.172;2023-06-14T10:23:29;101635.53;;;27.93;48.69
65173;BME280;69059;52.218;5.172;2023-06-14T10:25:58;101638.94;;;28.24;53.16
65173;BME280;69059;52.218;5.172;2023-06-14T10:28:26;101636.53;;;28.22;52.60
65173;BME280;69059;52.218;5.172;2023-06-14T10:31:07;101636.13;;;28.44;56.59
65173;BME280;69059;52.218;5.172;2023-06-14T10:33:36;101636.25;;;28.63;48.63
65173;BME280;69059;52.218;5.172;2023-06-14T10:36:26;101638.16;;;28.62;56.90
65173;BME280;69059;52.218;5.172;2023-06-14T10:38:58;101634.88;;;28.65;59.54
65173;BME280;69059;52.218;5.172;2023-06-14T10:41:27;101631.28;;;29.14;50.02
65173;BME280;69059;52.218;5.172;2023-06-14T10:44:31;101635.09;;;29.13;51.81
65173;BME280;69059;52.218;5.172;2023-06-14T10:46:59;101640.78;;;29.35;51.35
65173;BME280;69059;52.218;5.172;2023-06-14T10:49:38;101639.44;;;28.70;50.50
65173;BME280;69059;52.218;5.172;2023-06-14T10:52:14;101648.66;;;29.55;47.26
65173;BME280;69059;52.218;5.172;2023-06-14T10:55:08;101645.88;;;28.69;53.29
65173;BME280;69059;52.218;5.172;2023-06-14T10:57:39;101637.53;;;29.09;47.84
65173;BME280;69059;52.218;5.172;2023-06-14T11:00:18;101647.22;;;29.39;42.29
65173;BME280;69059;52.218;5.172;2023-06-14T11:05:56;101632.72;;;29.06;52.92
65173;BME280;69059;52.218;5.172;2023-06-14T11:08:48;101648.34;;;29.33;47.18
65173;BME280;69059;52.218;5.172;2023-06-14T11:11:22;101647.25;;;29.34;44.39
65173;BME280;69059;52.218;5.172;2023-06-14T11:13:51;101617.19;;;29.27;43.13
65173;BME280;69059;52.218;5.172;2023-06-14T11:16:26;101644.25;;;28.34;41.42
65173;BME280;69059;52.218;5.172;2023-06-14T11:18:54;101644.72;;;28.41;40.04
65173;BME280;69059;52.218;5.172;2023-06-14T11:21:24;101644.66;;;28.90;46.05
65173;BME280;69059;52.218;5.172;2023-06-14T11:23:58;101630.06;;;28.13;42.52
65173;BME280;69059;52.218;5.172;2023-06-14T11:26:27;101628.19;;;28.13;48.06
65173;BME280;69059;52.218;5.172;2023-06-14T11:28:56;101625.41;;;29.12;51.60
65173;BME280;69059;52.218;5.172;2023-06-14T11:31:25;101625.03;;;28.95;51.88
65173;BME280;69059;52.218;5.172;2023-06-14T11:33:54;101618.97;;;28.79;49.70
65173;BME280;69059;52.218;5.172;2023-06-14T11:36:23;101617.13;;;29.32;51.80
65173;BME280;69059;52.218;5.172;2023-06-14T11:38:59;101608.47;;;29.88;58.72
65173;BME280;69059;52.218;5.172;2023-06-14T11:41:33;101615.88;;;30.39;42.61
65173;BME280;69059;52.218;5.172;2023-06-14T11:44:01;101616.06;;;30.05;44.00
65173;BME280;69059;52.218;5.172;2023-06-14T11:46:29;101618.56;;;30.39;42.48
65173;BME280;69059;52.218;5.172;2023-06-14T11:48:57;101612.94;;;29.98;41.24
65173;BME280;69059;52.218;5.172;2023-06-14T11:51:25;101620.75;;;29.22;52.69
65173;BME280;69059;52.218;5.172;2023-06-14T11:53:54;101612.16;;;29.92;40.57
65173;BME280;69059;52.218;5.172;2023-06-14T11:56:24;101615.78;;;30.44;48.80
65173;BME280;69059;52.218;5.172;2023-06-14T11:58:52;101614.56;;;30.55;47.75
65173;BME280;69059;52.218;5.172;2023-06-14T12:01:22;101612.44;;;30.71;56.64
65173;BME280;69059;52.218;5.172;2023-06-14T12:03:50;101628.06;;;31.20;52.09
65173;BME280;69059;52.218;5.172;2023-06-14T12:06:26;101616.91;;;31.26;48.72
65173;BME280;69059;52.218;5.172;2023-06-14T12:08:56;101610.09;;;31.15;48.27
65173;BME280;69059;52.218;5.172;2023-06-14T12:11:31;101619.03;;;30.03;43.82
65173;BME280;69059;52.218;5.172;2023-06-14T12:13:59;101609.41;;;31.05;45.12
65173;BME280;69059;52.218;5.172;2023-06-14T12:16:32;101613.81;;;31.60;37.85
65173;BME280;69059;52.218;5.172;2023-06-14T12:19:01;101617.13;;;31.71;46.56
65173;BME280;69059;52.218;5.172;2023-06-14T12:21:36;101611.75;;;32.07;46.38
65173;BME280;69059;52.218;5.172;2023-06-14T12:24:05;101607.66;;;32.23;42.04
65173;BME280;69059;52.218;5.172;2023-06-14T12:26:38;101604.59;;;32.38;40.04
65173;BME280;69059;52.218;5.172;2023-06-14T12:29:06;101621.47;;;32.80;41.68
65173;BME280;69059;52.218;5.172;2023-06-14T12:31:34;101617.47;;;32.78;37.07
65173;BME280;69059;52.218;5.172;2023-06-14T12:34:02;101610.66;;;32.80;34.02
65173;BME280;69059;52.218;5.172;2023-06-14T12:36:30;101609.38;;;31.92;37.21
65173;BME280;69059;52.218;5.172;2023-06-14T12:38:58;101616.38;;;31.93;36.17
65173;BME280;69059;52.218;5.172;2023-06-14T12:41:26;101609.81;;;32.57;31.88
65173;BME280;69059;52.218;5.172;2023-06-14T12:43:56;101607.06;;;32.13;36.60
65173;BME280;69059;52.218;5.172;2023-06-14T12:46:26;101608.25;;;33.09;32.86
65173;BME280;69059;52.218;5.172;2023-06-14T12:48:54;101614.31;;;32.84;31.39
65173;BME280;69059;52.218;5.172;2023-06-14T12:51:22;101613.47;;;30.75;35.82
65173;BME280;69059;52.218;5.172;2023-06-14T12:53:51;101614.22;;;32.31;33.80
65173;BME280;69059;52.218;5.172;2023-06-14T12:56:19;101612.59;;;32.66;33.31
65173;BME280;69059;52.218;5.172;2023-06-14T12:58:50;101611.97;;;32.91;33.07